Time;durP1;ratioP1;P1;durP2;ratioP2;P2;SDS_P1;SDS_P2;PMS_P1;PMS_P2;Temp;Humidity;BMP_temperature;BMP_pressure;BME280_temperature;BME280_humidity;BME280_pressure;Samples;Min_cycle;Max_cycle;Signal;HPM_P1;HPM_P2
2022/01/06 00:00:24;;;;;;;;;;;;;;;;;;6215480;23;20372;-76
2022/01/06 00:02:50;;;;;;;;;;;;;;;;;;6188614;23;19927;-76
2022/01/06 00:05:16;;;;;;;;;;;;;;;;;;6215068;23;19979;-76
2022/01/06 00:07:42;;;;;;;;;;;;;;;;;;6215080;23;19991;-76
2022/01/06 00:10:11;;;;;;;;;;;;;;;;;;6188518;23;20023;-76
2022/01/06 00:13:03;;;;;;;;;;;;;;;;;;6188381;23;19915;-76
2022/01/06 00:25:37;;;;;;;;;;;;;;;;;;6215630;23;19908;-76
2022/01/06 00:28:03;;;;;;;;;;;;;;;;;;6215233;23;19908;-76
2022/01/06 00:30:29;;;;;;;;;;;;;;;;;;6214897;23;19912;-76
2022/01/06 00:32:55;;;;;;;;;;;;;;;;;;6214815;23;19900;-76
2022/01/06 00:35:20;;;;;;;;;;;;;;;;;;6215081;23;20219;-77
2022/01/06 00:37:46;;;;;;;;;;;;;;;;;;6214894;23;19900;-77
2022/01/06 00:40:12;;;;;;;;;;;;;;;;;;6214356;23;19923;-76
2022/01/06 00:42:39;;;;;;;;;;;;;;;;;;6214929;23;19900;-75
2022/01/06 00:45:05;;;;;;;;;;;;;;;;;;6215215;23;20345;-76
2022/01/06 00:47:31;;;;;;;;;;;;;;;;;;6215524;23;19904;-76
2022/01/06 00:49:57;;;;;;;;;;;;;;;;;;6214915;23;19908;-76
2022/01/06 00:52:23;;;;;;;;;;;;;;;;;;6215044;23;20342;-74
2022/01/06 00:54:49;;;;;;;;;;;;;;;;;;6188058;23;19908;-76
2022/01/06 00:57:14;;;;;;;;;;;;;;;;;;6214884;23;19904;-76
2022/01/06 00:59:40;;;;;;;;;;;;;;;;;;6214959;23;19904;-76
2022/01/06 01:02:06;;;;;;;;;;;;;;;;;;6215114;23;19927;-76
2022/01/06 01:04:32;;;;;;;;;;;;;;;;;;6215158;23;19904;-76
2022/01/06 01:06:58;;;;;;;;;;;;;;;;;;6187774;23;19927;-75
2022/01/06 01:09:24;;;;;;;;;;;;;;;;;;6187543;23;19907;-77
2022/01/06 01:11:50;;;;;;;;;;;;;;;;;;6215139;23;19911;-76
2022/01/06 01:14:27;;;;;;;;;;;;;;;;;;6214872;23;19914;-76
2022/01/06 01:16:55;;;;;;;;;;;;;;;;;;6215039;23;19910;-76
2022/01/06 01:19:21;;;;;;;;;;;;;;;;;;6215483;23;19903;-76
2022/01/06 01:21:47;;;;;;;;;;;;;;;;;;6214618;23;20387;-76
2022/01/06 01:24:13;;;;;;;;;;;;;;;;;;6214682;23;19904;-76
2022/01/06 01:26:39;;;;;;;;;;;;;;;;;;6188487;23;19934;-76
2022/01/06 01:29:13;;;;;;;;;;;;;;;;;;6215225;23;19915;-76
2022/01/06 01:31:46;;;;;;;;;;;;;;;;;;6215187;23;19977;-76
2022/01/06 01:34:12;;;;;;;;;;;;;;;;;;6214828;23;19904;-76
2022/01/06 01:36:39;;;;;;;;;;;;;;;;;;6216477;23;20385;-76
2022/01/06 01:39:04;;;;;;;;;;;;;;;;;;6216122;23;19915;-76
2022/01/06 01:41:30;;;;;;;;;;;;;;;;;;6189989;23;19904;-76
2022/01/06 01:43:57;;;;;;;;;;;;;;;;;;6217151;23;19904;-76
2022/01/06 01:46:28;;;;;;;;;;;;;;;;;;6216442;23;20322;-76
2022/01/06 01:49:14;;;;;;;;;;;;;;;;;;6216512;23;19958;-76
2022/01/06 01:51:40;;;;;;;;;;;;;;;;;;6216861;23;19904;-76
2022/01/06 01:54:06;;;;;;;;;;;;;;;;;;6189997;23;19904;-76
2022/01/06 01:56:32;;;;;;;;;;;;;;;;;;6216662;23;19951;-76
2022/01/06 01:58:58;;;;;;;;;;;;;;;;;;6216366;23;19950;-76
2022/01/06 02:01:24;;;;;;;;;;;;;;;;;;6216604;23;19932;-76
2022/01/06 02:03:50;;;;;;;;;;;;;;;;;;6216735;23;19936;-76
2022/01/06 02:06:15;;;;;;;;;;;;;;;;;;6216278;23;19932;-76
2022/01/06 02:08:41;;;;;;;;;;;;;;;;;;6215935;23;19987;-76
2022/01/06 02:11:07;;;;;;;;;;;;;;;;;;6216515;23;20292;-77
2022/01/06 02:13:33;;;;;;;;;;;;;;;;;;6189708;23;19908;-76
2022/01/06 02:16:00;;;;;;;;;;;;;;;;;;6216616;23;19911;-76
2022/01/06 02:18:28;;;;;;;;;;;;;;;;;;6215856;23;19974;-76
2022/01/06 02:20:53;;;;;;;;;;;;;;;;;;6215983;23;19904;-76
2022/01/06 02:23:21;;;;;;;;;;;;;;;;;;6215006;23;19910;-76
2022/01/06 02:25:47;;;;;;;;;;;;;;;;;;6216801;23;20289;-76
2022/01/06 02:28:13;;;;;;;;;;;;;;;;;;6216104;23;19908;-76
2022/01/06 02:30:38;;;;;;;;;;;;;;;;;;6216568;23;19908;-76
2022/01/06 02:33:06;;;;;;;;;;;;;;;;;;6216044;23;19907;-76
2022/01/06 02:35:32;;;;;;;;;;;;;;;;;;6216380;23;19918;-76
2022/01/06 02:37:58;;;;;;;;;;;;;;;;;;6216067;23;19971;-76
2022/01/06 02:40:24;;;;;;;;;;;;;;;;;;6215604;23;20327;-76
2022/01/06 02:42:51;;;;;;;;;;;;;;;;;;6216147;23;19908;-76
2022/01/06 02:45:17;;;;;;;;;;;;;;;;;;6216025;23;19922;-76
2022/01/06 02:47:43;;;;;;;;;;;;;;;;;;6215502;23;19974;-76
2022/01/06 02:50:09;;;;;;;;;;;;;;;;;;6215993;23;19986;-76
2022/01/06 02:52:34;;;;;;;;;;;;;;;;;;6215954;23;19969;-76
2022/01/06 02:55:00;;;;;;;;;;;;;;;;;;6216251;23;19911;-76
2022/01/06 02:57:26;;;;;;;;;;;;;;;;;;6216251;23;20338;-77
2022/01/06 02:59:52;;;;;;;;;;;;;;;;;;6216423;23;19982;-76
2022/01/06 03:02:18;;;;;;;;;;;;;;;;;;6215288;23;19910;-76
2022/01/06 03:04:44;;;;;;;;;;;;;;;;;;6215568;23;19904;-76
2022/01/06 03:07:10;;;;;;;;;;;;;;;;;;6216039;23;19904;-76
2022/01/06 03:09:41;;;;;;;;;;;;;;;;;;6215827;23;19915;-76
2022/01/06 03:12:09;;;;;;;;;;;;;;;;;;6216359;23;20519;-76
2022/01/06 03:14:37;;;;;;;;;;;;;;;;;;6215472;23;19915;-76
2022/01/06 03:17:03;;;;;;;;;;;;;;;;;;6215571;23;19904;-77
2022/01/06 03:19:29;;;;;;;;;;;;;;;;;;6214966;23;19915;-76
2022/01/06 03:21:55;;;;;;;;;;;;;;;;;;6215641;23;20231;-76
2022/01/06 03:24:21;;;;;;;;;;;;;;;;;;6216070;23;19904;-76
2022/01/06 03:26:47;;;;;;;;;;;;;;;;;;6215835;23;19911;-76
2022/01/06 03:29:12;;;;;;;;;;;;;;;;;;6189062;23;19915;-76
2022/01/06 03:31:38;;;;;;;;;;;;;;;;;;6214938;23;19904;-76
2022/01/06 03:34:04;;;;;;;;;;;;;;;;;;6215520;23;19966;-76
2022/01/06 03:36:30;;;;;;;;;;;;;;;;;;6215460;23;20330;-76
2022/01/06 03:38:56;;;;;;;;;;;;;;;;;;6214625;23;19920;-76
2022/01/06 03:41:22;;;;;;;;;;;;;;;;;;6215795;23;19908;-76
2022/01/06 03:43:48;;;;;;;;;;;;;;;;;;6215783;23;19914;-76
2022/01/06 03:46:14;;;;;;;;;;;;;;;;;;6215049;23;19908;-76
2022/01/06 03:48:39;;;;;;;;;;;;;;;;;;6215595;23;20278;-76
2022/01/06 03:51:05;;;;;;;;;;;;;;;;;;6215251;23;19949;-76
2022/01/06 03:53:31;;;;;;;;;;;;;;;;;;6215546;23;19946;-76
2022/01/06 03:55:57;;;;;;;;;;;;;;;;;;6215560;23;20334;-76
2022/01/06 03:58:23;;;;;;;;;;;;;;;;;;6215073;23;19908;-76
2022/01/06 04:00:49;;;;;;;;;;;;;;;;;;6187806;23;19910;-76
2022/01/06 04:03:15;;;;;;;;;;;;;;;;;;6215108;23;19911;-76
2022/01/06 04:05:41;;;;;;;;;;;;;;;;;;6214667;23;19904;-76
2022/01/06 04:08:07;;;;;;;;;;;;;;;;;;6215423;23;19908;-76
2022/01/06 04:10:33;;;;;;;;;;;;;;;;;;6215084;23;19956;-76
2022/01/06 04:12:58;;;;;;;;;;;;;;;;;;6215508;23;19904;-76
2022/01/06 04:15:26;;;;;;;;;;;;;;;;;;6188223;23;20225;-76
2022/01/06 04:17:52;;;;;;;;;;;;;;;;;;6215054;23;19919;-76
2022/01/06 04:20:18;;;;;;;;;;;;;;;;;;6215514;23;19908;-76
2022/01/06 04:22:44;;;;;;;;;;;;;;;;;;6188927;23;20326;-76
2022/01/06 04:25:09;;;;;;;;;;;;;;;;;;6215050;23;19907;-76
2022/01/06 04:27:35;;;;;;;;;;;;;;;;;;6214857;23;19904;-76
2022/01/06 04:30:02;;;;;;;;;;;;;;;;;;6215147;23;20274;-76
2022/01/06 04:32:28;;;;;;;;;;;;;;;;;;6215411;23;19908;-76
2022/01/06 04:34:54;;;;;;;;;;;;;;;;;;6215176;23;20262;-76
2022/01/06 04:37:20;;;;;;;;;;;;;;;;;;6215248;23;20328;-76
2022/01/06 04:39:46;;;;;;;;;;;;;;;;;;6214701;23;20404;-76
2022/01/06 04:42:11;;;;;;;;;;;;;;;;;;6214728;23;19907;-76
2022/01/06 04:44:37;;;;;;;;;;;;;;;;;;6214428;23;19908;-77
2022/01/06 04:47:03;;;;;;;;;;;;;;;;;;6215424;23;20357;-77
2022/01/06 04:49:29;;;;;;;;;;;;;;;;;;6215169;23;19912;-76
2022/01/06 04:51:55;;;;;;;;;;;;;;;;;;6214580;23;19904;-76
2022/01/06 04:54:21;;;;;;;;;;;;;;;;;;6215049;23;19911;-76
2022/01/06 04:56:47;;;;;;;;;;;;;;;;;;6214766;23;19908;-76
2022/01/06 04:59:13;;;;;;;;;;;;;;;;;;6215120;23;20265;-76
2022/01/06 05:01:39;;;;;;;;;;;;;;;;;;6215740;23;19904;-76
2022/01/06 05:04:05;;;;;;;;;;;;;;;;;;6215208;23;19904;-76
2022/01/06 05:06:31;;;;;;;;;;;;;;;;;;6215032;23;19904;-76
2022/01/06 05:08:57;;;;;;;;;;;;;;;;;;6189336;23;19973;-76
2022/01/06 05:11:22;;;;;;;;;;;;;;;;;;6216892;23;19904;-76
2022/01/06 05:13:48;;;;;;;;;;;;;;;;;;6216694;23;19910;-76
2022/01/06 05:16:14;;;;;;;;;;;;;;;;;;6216763;23;19904;-79
2022/01/06 05:18:40;;;;;;;;;;;;;;;;;;6216685;23;19904;-75
2022/01/06 05:21:06;;;;;;;;;;;;;;;;;;6217159;23;19904;-74
2022/01/06 05:23:32;;;;;;;;;;;;;;;;;;6216840;23;19978;-74
2022/01/06 05:25:58;;;;;;;;;;;;;;;;;;6216491;23;19986;-77
2022/01/06 05:28:24;;;;;;;;;;;;;;;;;;6216353;23;20253;-74
2022/01/06 05:30:50;;;;;;;;;;;;;;;;;;6215871;23;19928;-74
2022/01/06 05:33:16;;;;;;;;;;;;;;;;;;6216551;23;19903;-75
2022/01/06 05:35:42;;;;;;;;;;;;;;;;;;6189642;23;19911;-74
2022/01/06 05:38:08;;;;;;;;;;;;;;;;;;6215863;23;19904;-75
2022/01/06 05:40:34;;;;;;;;;;;;;;;;;;6215925;23;19936;-77
2022/01/06 05:43:00;;;;;;;;;;;;;;;;;;6189182;23;19907;-77
2022/01/06 05:45:26;;;;;;;;;;;;;;;;;;6216567;23;19904;-75
2022/01/06 05:47:52;;;;;;;;;;;;;;;;;;6216442;23;20283;-77
2022/01/06 05:50:18;;;;;;;;;;;;;;;;;;6216310;23;19924;-76
2022/01/06 05:52:44;;;;;;;;;;;;;;;;;;6216008;23;19931;-76
2022/01/06 05:55:10;;;;;;;;;;;;;;;;;;6216649;23;19954;-76
2022/01/06 05:57:36;;;;;;;;;;;;;;;;;;6215742;23;19942;-76
2022/01/06 06:00:02;;;;;;;;;;;;;;;;;;6215952;23;19942;-74
2022/01/06 06:02:28;;;;;;;;;;;;;;;;;;6216081;23;19950;-72
2022/01/06 06:04:54;;;;;;;;;;;;;;;;;;6215344;23;19974;-76
2022/01/06 06:07:20;;;;;;;;;;;;;;;;;;6215691;23;19979;-76
2022/01/06 06:09:46;;;;;;;;;;;;;;;;;;6216478;23;19914;-76
2022/01/06 06:12:12;;;;;;;;;;;;;;;;;;6189386;23;19911;-76
2022/01/06 06:14:37;;;;;;;;;;;;;;;;;;6215931;23;19908;-76
2022/01/06 06:17:03;;;;;;;;;;;;;;;;;;6216154;23;19911;-75
2022/01/06 06:19:29;;;;;;;;;;;;;;;;;;6216084;23;19908;-76
2022/01/06 06:21:55;;;;;;;;;;;;;;;;;;6215434;23;19903;-75
2022/01/06 06:24:23;;;;;;;;;;;;;;;;;;6222439;23;19904;-76
2022/01/06 06:26:50;;;;;;;;;;;;;;;;;;6215624;23;19904;-75
2022/01/06 11:30:22;;;;;;;;;;;;;;;;;;6213512;23;20285;-77
2022/01/06 11:32:48;;;;;;;;;;;;;;;;;;6214740;23;20345;-75
2022/01/06 11:35:14;;;;;;;;;;;;;;;;;;6215450;23;19900;-76
2022/01/06 11:37:39;;;;;;;;;;;;;;;;;;6215595;23;20305;-76
2022/01/06 11:40:05;;;;;;;;;;;;;;;;;;6214691;23;19900;-76
2022/01/06 11:42:31;;;;;;;;;;;;;;;;;;6187943;23;19904;-75
2022/01/06 11:44:58;;;;;;;;;;;;;;;;;;6213516;23;19930;-75
2022/01/06 11:47:24;;;;;;;;;;;;;;;;;;6214377;23;19950;-74
2022/01/06 11:49:50;;;;;;;;;;;;;;;;;;6214575;23;19908;-75
2022/01/06 11:52:16;;;;;;;;;;;;;;;;;;6215102;23;20288;-75
2022/01/06 11:54:42;;;;;;;;;;;;;;;;;;6213833;23;19911;-75
2022/01/06 11:57:07;;;;;;;;;;;;;;;;;;6214363;23;20253;-74
2022/01/06 11:59:34;;;;;;;;;;;;;;;;;;6214510;23;19908;-74
2022/01/06 12:02:01;;;;;;;;;;;;;;;;;;6214521;23;19904;-73
2022/01/06 12:04:26;;;;;;;;;;;;;;;;;;6214100;23;19914;-73
2022/01/06 12:06:52;;;;;;;;;;;;;;;;;;6215507;23;19935;-75
2022/01/06 12:09:18;;;;;;;;;;;;;;;;;;6215222;23;20313;-75
2022/01/06 12:11:44;;;;;;;;;;;;;;;;;;6215912;23;19904;-75
2022/01/06 12:14:11;;;;;;;;;;;;;;;;;;6214545;23;20298;-75
2022/01/06 12:16:37;;;;;;;;;;;;;;;;;;6215066;23;19930;-75
2022/01/06 12:19:03;;;;;;;;;;;;;;;;;;6188891;23;19958;-75
2022/01/06 12:21:29;;;;;;;;;;;;;;;;;;6214814;23;19908;-75
2022/01/06 12:23:55;;;;;;;;;;;;;;;;;;6215206;23;19904;-75
2022/01/06 12:26:20;;;;;;;;;;;;;;;;;;6214567;23;19995;-75
2022/01/06 14:34:09;;;;;;;;;;;;;;;;;;6154018;23;19975;-75
2022/01/06 14:36:34;;;;;;;;;;;;;;;;;;6152473;23;19912;-75
2022/01/06 14:39:00;;;;;;;;;;;;;;;;;;6153520;23;19904;-75
2022/01/06 14:41:26;;;;;;;;;;;;;;;;;;6153579;23;19924;-75
2022/01/06 14:43:52;;;;;;;;;;;;;;;;;;6153872;23;19904;-75
2022/01/06 14:46:18;;;;;;;;;;;;;;;;;;6153572;23;19915;-75
2022/01/06 14:48:44;;;;;;;;;;;;;;;;;;6127816;23;19971;-75
2022/01/06 14:51:10;;;;;;;;;;;;;;;;;;6154596;23;20327;-75
2022/01/06 14:53:36;;;;;;;;;;;;;;;;;;6154511;23;19908;-74
2022/01/06 14:56:03;;;;;;;;;;;;;;;;;;6154530;23;19927;-74
2022/01/06 14:58:29;;;;;;;;;;;;;;;;;;6153871;23;19972;-74
2022/01/06 15:00:54;;;;;;;;;;;;;;;;;;6153634;23;19940;-74
2022/01/06 15:03:22;;;;;;;;;;;;;;;;;;6127166;23;19932;-74
2022/01/06 15:05:48;;;;;;;;;;;;;;;;;;6128584;23;19908;-74
2022/01/06 15:08:15;;;;;;;;;;;;;;;;;;6152844;23;19908;-74
2022/01/06 15:10:40;;;;;;;;;;;;;;;;;;6154736;23;20235;-74
2022/01/06 15:13:06;;;;;;;;;;;;;;;;;;6155756;23;19904;-74
2022/01/06 15:15:32;;;;;;;;;;;;;;;;;;6155075;23;19911;-74
2022/01/06 15:17:58;;;;;;;;;;;;;;;;;;6154775;23;19936;-74
2022/01/06 15:20:24;;;;;;;;;;;;;;;;;;6155595;23;19932;-74
2022/01/06 15:22:50;;;;;;;;;;;;;;;;;;6155163;23;20250;-74
2022/01/06 15:25:16;;;;;;;;;;;;;;;;;;6155567;23;20361;-74
2022/01/06 15:27:43;;;;;;;;;;;;;;;;;;6155774;23;19909;-74
2022/01/06 15:30:09;;;;;;;;;;;;;;;;;;6155520;23;19908;-74
2022/01/06 15:32:35;;;;;;;;;;;;;;;;;;6155510;23;19928;-74
2022/01/06 15:35:01;;;;;;;;;;;;;;;;;;6128992;23;19909;-74
2022/01/06 15:37:27;;;;;;;;;;;;;;;;;;6155218;23;19911;-74
2022/01/06 15:39:53;;;;;;;;;;;;;;;;;;6155367;23;20303;-74
2022/01/06 15:42:18;;;;;;;;;;;;;;;;;;6155941;23;19911;-74
2022/01/06 15:44:44;;;;;;;;;;;;;;;;;;6155586;23;19946;-74
2022/01/06 15:47:10;;;;;;;;;;;;;;;;;;6155109;23;19909;-74
2022/01/06 15:49:36;;;;;;;;;;;;;;;;;;6155484;23;19908;-74
2022/01/06 15:52:02;;;;;;;;;;;;;;;;;;6154876;23;19983;-75
2022/01/06 15:54:28;;;;;;;;;;;;;;;;;;6154667;23;19971;-75
2022/01/06 15:56:54;;;;;;;;;;;;;;;;;;6155231;23;19904;-74
2022/01/06 15:59:26;;;;;;;;;;;;;;;;;;6155321;23;19911;-74
2022/01/06 16:07:10;;;;;;;;;;;;;;;;;;6154818;23;19912;-74
2022/01/06 16:09:36;;;;;;;;;;;;;;;;;;6128391;23;20235;-74
2022/01/06 16:12:02;;;;;;;;;;;;;;;;;;6154679;23;19904;-74
2022/01/06 16:14:28;;;;;;;;;;;;;;;;;;6128152;23;19909;-74
2022/01/06 16:16:54;;;;;;;;;;;;;;;;;;6154825;23;19908;-74
2022/01/06 16:19:19;;;;;;;;;;;;;;;;;;6153836;23;20353;-74
2022/01/06 16:21:45;;;;;;;;;;;;;;;;;;6155602;23;19912;-74
2022/01/06 16:24:11;;;;;;;;;;;;;;;;;;6128387;23;19912;-74
2022/01/06 16:26:37;;;;;;;;;;;;;;;;;;6155013;23;19904;-74
2022/01/06 16:29:05;;;;;;;;;;;;;;;;;;6154495;23;19912;-79
2022/01/06 16:31:31;;;;;;;;;;;;;;;;;;6155043;23;19955;-76
2022/01/06 16:33:57;;;;;;;;;;;;;;;;;;6153199;23;19920;-74
2022/01/06 16:36:23;;;;;;;;;;;;;;;;;;6151931;23;20357;-74
2022/01/06 16:38:49;;;;;;;;;;;;;;;;;;6153701;23;19904;-74
2022/01/06 16:41:15;;;;;;;;;;;;;;;;;;6153252;23;20271;-74
2022/01/06 16:43:41;;;;;;;;;;;;;;;;;;6153671;23;19904;-74
2022/01/06 16:46:07;;;;;;;;;;;;;;;;;;6153322;23;19975;-74
2022/01/06 16:48:34;;;;;;;;;;;;;;;;;;6152928;23;19916;-74
2022/01/06 16:51:00;;;;;;;;;;;;;;;;;;6154367;23;19979;-74
2022/01/06 16:53:26;;;;;;;;;;;;;;;;;;6154390;23;19933;-74
2022/01/06 16:55:52;;;;;;;;;;;;;;;;;;6154072;23;19932;-74
2022/01/06 16:58:18;;;;;;;;;;;;;;;;;;6154662;23;19948;-74
2022/01/06 17:00:44;;;;;;;;;;;;;;;;;;6154388;23;20212;-74
2022/01/06 17:03:10;;;;;;;;;;;;;;;;;;6153357;23;19908;-75
2022/01/06 17:05:36;;;;;;;;;;;;;;;;;;6155219;23;19956;-74
2022/01/06 17:08:02;;;;;;;;;;;;;;;;;;6156648;23;20385;-74
2022/01/06 17:10:28;;;;;;;;;;;;;;;;;;6129789;23;19927;-75
2022/01/06 17:12:56;;;;;;;;;;;;;;;;;;6156535;23;19988;-75
2022/01/06 17:15:22;;;;;;;;;;;;;;;;;;6156225;23;20303;-75
2022/01/06 17:17:48;;;;;;;;;;;;;;;;;;6155955;23;19947;-74
2022/01/06 17:20:13;;;;;;;;;;;;;;;;;;6156357;23;19999;-75
2022/01/06 17:22:39;;;;;;;;;;;;;;;;;;6155617;23;20349;-75
2022/01/06 17:25:05;;;;;;;;;;;;;;;;;;6156032;23;19911;-75
2022/01/06 17:27:31;;;;;;;;;;;;;;;;;;6155972;23;20342;-75
2022/01/06 17:29:57;;;;;;;;;;;;;;;;;;6156315;23;19920;-75
2022/01/06 17:32:23;;;;;;;;;;;;;;;;;;6155583;23;19962;-75
2022/01/06 17:34:49;;;;;;;;;;;;;;;;;;6129709;23;19943;-75
2022/01/06 17:37:15;;;;;;;;;;;;;;;;;;6156196;23;19904;-74
2022/01/06 17:39:41;;;;;;;;;;;;;;;;;;6156200;23;19905;-75
2022/01/06 17:42:07;;;;;;;;;;;;;;;;;;6156437;23;19970;-75
2022/01/06 17:44:33;;;;;;;;;;;;;;;;;;6155698;23;19940;-76
2022/01/06 17:46:59;;;;;;;;;;;;;;;;;;6156078;23;19988;-75
2022/01/06 17:49:25;;;;;;;;;;;;;;;;;;6155530;23;19912;-75
2022/01/06 17:51:51;;;;;;;;;;;;;;;;;;6156225;23;19991;-75
2022/01/06 17:54:17;;;;;;;;;;;;;;;;;;6155498;23;19905;-75
2022/01/06 17:56:43;;;;;;;;;;;;;;;;;;6155438;23;19908;-75
2022/01/06 17:59:09;;;;;;;;;;;;;;;;;;6155726;23;19940;-75
2022/01/06 18:01:34;;;;;;;;;;;;;;;;;;6154880;23;19912;-74
2022/01/06 18:04:00;;;;;;;;;;;;;;;;;;6156038;23;20327;-74
2022/01/06 18:06:29;;;;;;;;;;;;;;;;;;6155737;23;19904;-74
2022/01/06 18:11:39;;;;;;;;;;;;;;;;;;6156106;23;19952;-74
2022/01/06 18:14:06;;;;;;;;;;;;;;;;;;6155823;23;19904;-74
2022/01/06 18:16:32;;;;;;;;;;;;;;;;;;6154765;23;19928;-75
2022/01/06 18:18:58;;;;;;;;;;;;;;;;;;6154876;23;19916;-75
2022/01/06 18:21:24;;;;;;;;;;;;;;;;;;6156057;23;19909;-77
2022/01/06 18:23:50;;;;;;;;;;;;;;;;;;6155604;23;19994;-77
2022/01/06 18:26:16;;;;;;;;;;;;;;;;;;6155606;23;20357;-78
2022/01/06 18:28:42;;;;;;;;;;;;;;;;;;6155290;23;19964;-75
2022/01/06 18:31:08;;;;;;;;;;;;;;;;;;6155453;23;19905;-76
2022/01/06 18:33:33;;;;;;;;;;;;;;;;;;6154695;23;20060;-74
2022/01/06 18:35:59;;;;;;;;;;;;;;;;;;6155450;23;19970;-75
2022/01/06 18:38:25;;;;;;;;;;;;;;;;;;6155086;23;19905;-74
2022/01/06 18:40:51;;;;;;;;;;;;;;;;;;6155178;23;19923;-75
2022/01/06 18:43:17;;;;;;;;;;;;;;;;;;6156093;23;20322;-74
2022/01/06 18:45:43;;;;;;;;;;;;;;;;;;6154783;23;19904;-75
2022/01/06 18:48:09;;;;;;;;;;;;;;;;;;6155425;23;20212;-75
2022/01/06 18:50:35;;;;;;;;;;;;;;;;;;6155921;23;19905;-75
2022/01/06 18:53:02;;;;;;;;;;;;;;;;;;6154919;23;19912;-75
2022/01/06 18:55:28;;;;;;;;;;;;;;;;;;6155648;23;19983;-76
2022/01/06 18:57:54;;;;;;;;;;;;;;;;;;6155406;23;19955;-75
2022/01/06 19:00:20;;;;;;;;;;;;;;;;;;6155993;23;19912;-75
2022/01/06 19:02:46;;;;;;;;;;;;;;;;;;6155030;23;19904;-75
2022/01/06 19:05:12;;;;;;;;;;;;;;;;;;6155879;23;19904;-74
2022/01/06 19:07:38;;;;;;;;;;;;;;;;;;6155447;23;19912;-75
2022/01/06 19:10:04;;;;;;;;;;;;;;;;;;6155558;23;19913;-75
2022/01/06 19:12:30;;;;;;;;;;;;;;;;;;6156178;23;20370;-75
2022/01/06 19:14:55;;;;;;;;;;;;;;;;;;6155389;23;19905;-75
2022/01/06 19:17:21;;;;;;;;;;;;;;;;;;6129590;23;19909;-75
2022/01/06 19:19:47;;;;;;;;;;;;;;;;;;6155508;23;19908;-75
2022/01/06 19:22:13;;;;;;;;;;;;;;;;;;6155347;23;19908;-75
2022/01/06 19:24:39;;;;;;;;;;;;;;;;;;6155569;23;20315;-75
2022/01/06 19:27:05;;;;;;;;;;;;;;;;;;6129565;23;19912;-75
2022/01/06 19:29:31;;;;;;;;;;;;;;;;;;6155263;23;19909;-75
2022/01/06 19:31:57;;;;;;;;;;;;;;;;;;6129244;23;19909;-74
2022/01/06 19:34:23;;;;;;;;;;;;;;;;;;6155597;23;19917;-75
2022/01/06 19:36:48;;;;;;;;;;;;;;;;;;6129165;23;20262;-74
2022/01/06 19:39:14;;;;;;;;;;;;;;;;;;6155351;23;19905;-75
2022/01/06 19:41:40;;;;;;;;;;;;;;;;;;6155753;23;19904;-75
2022/01/06 19:44:06;;;;;;;;;;;;;;;;;;6128866;23;19911;-78
2022/01/06 19:46:32;;;;;;;;;;;;;;;;;;6128875;23;19912;-74
2022/01/06 19:48:58;;;;;;;;;;;;;;;;;;6153973;23;19916;-74
2022/01/06 19:51:24;;;;;;;;;;;;;;;;;;6155369;23;19911;-74
2022/01/06 19:53:50;;;;;;;;;;;;;;;;;;6155728;23;19901;-74
2022/01/06 19:56:17;;;;;;;;;;;;;;;;;;6155006;23;19988;-74
2022/01/06 19:58:43;;;;;;;;;;;;;;;;;;6155227;23;19905;-74
2022/01/06 20:01:09;;;;;;;;;;;;;;;;;;6153950;23;19905;-74
2022/01/06 20:03:35;;;;;;;;;;;;;;;;;;6154630;23;19905;-74
2022/01/06 20:06:01;;;;;;;;;;;;;;;;;;6154871;23;19900;-73
2022/01/06 20:08:27;;;;;;;;;;;;;;;;;;6129024;23;19909;-74
2022/01/06 20:10:53;;;;;;;;;;;;;;;;;;6154870;23;19960;-74
2022/01/06 20:13:22;;;;;;;;;;;;;;;;;;6155111;23;19905;-74
2022/01/06 20:15:48;;;;;;;;;;;;;;;;;;6155227;23;20326;-74
2022/01/06 20:18:14;;;;;;;;;;;;;;;;;;6128605;23;19941;-74
2022/01/06 20:20:41;;;;;;;;;;;;;;;;;;6155757;23;20311;-74
2022/01/06 20:23:07;;;;;;;;;;;;;;;;;;6155088;23;19980;-74
2022/01/06 20:25:33;;;;;;;;;;;;;;;;;;6154610;23;19909;-73
2022/01/06 20:27:59;;;;;;;;;;;;;;;;;;6128658;23;19920;-74
2022/01/06 20:30:24;;;;;;;;;;;;;;;;;;6154769;23;19936;-74
2022/01/06 20:32:50;;;;;;;;;;;;;;;;;;6154286;23;19913;-74
2022/01/06 20:35:16;;;;;;;;;;;;;;;;;;6128972;23;19905;-74
2022/01/06 20:37:42;;;;;;;;;;;;;;;;;;6155499;23;20250;-73
2022/01/06 20:40:08;;;;;;;;;;;;;;;;;;6155428;23;19905;-74
2022/01/06 20:42:34;;;;;;;;;;;;;;;;;;6157026;23;19979;-74
2022/01/06 20:45:01;;;;;;;;;;;;;;;;;;6157232;23;19904;-74
2022/01/06 20:52:50;;;;;;;;;;;;;;;;;;6156985;23;19955;-74
2022/01/06 20:55:16;;;;;;;;;;;;;;;;;;6156200;23;19904;-74
2022/01/06 20:57:41;;;;;;;;;;;;;;;;;;6157382;23;20330;-74
2022/01/06 21:00:07;;;;;;;;;;;;;;;;;;6156588;23;19984;-74
2022/01/06 21:02:33;;;;;;;;;;;;;;;;;;6130016;23;20204;-74
2022/01/06 21:04:59;;;;;;;;;;;;;;;;;;6157181;23;19908;-74
2022/01/06 21:07:25;;;;;;;;;;;;;;;;;;6156972;23;19905;-73
2022/01/06 21:09:51;;;;;;;;;;;;;;;;;;6156787;23;20286;-74
2022/01/06 21:12:17;;;;;;;;;;;;;;;;;;6156883;23;19909;-74
2022/01/06 21:14:43;;;;;;;;;;;;;;;;;;6156888;23;19928;-74
2022/01/06 21:17:10;;;;;;;;;;;;;;;;;;6157098;23;20394;-74
2022/01/06 21:19:39;;;;;;;;;;;;;;;;;;6156884;23;19908;-74
2022/01/06 21:22:05;;;;;;;;;;;;;;;;;;6156960;23;19932;-73
2022/01/06 21:24:31;;;;;;;;;;;;;;;;;;6130069;23;20231;-74
2022/01/06 21:26:57;;;;;;;;;;;;;;;;;;6156962;23;19911;-74
2022/01/06 21:29:23;;;;;;;;;;;;;;;;;;6156425;23;19913;-74
2022/01/06 21:31:49;;;;;;;;;;;;;;;;;;6156823;23;20381;-74
2022/01/06 21:34:15;;;;;;;;;;;;;;;;;;6156805;23;19955;-74
2022/01/06 21:36:41;;;;;;;;;;;;;;;;;;6156745;23;19912;-73
2022/01/06 21:39:07;;;;;;;;;;;;;;;;;;6156297;23;19900;-74
2022/01/06 21:41:33;;;;;;;;;;;;;;;;;;6156686;23;19909;-73
2022/01/06 21:43:59;;;;;;;;;;;;;;;;;;6157020;23;19900;-74
2022/01/06 21:46:25;;;;;;;;;;;;;;;;;;6156340;23;20331;-73
2022/01/06 21:48:51;;;;;;;;;;;;;;;;;;6156602;23;19908;-73
2022/01/06 21:51:17;;;;;;;;;;;;;;;;;;6155697;23;20290;-74
2022/01/06 21:53:42;;;;;;;;;;;;;;;;;;6156790;23;19959;-73
2022/01/06 21:56:08;;;;;;;;;;;;;;;;;;6156583;23;19904;-73
2022/01/06 21:58:35;;;;;;;;;;;;;;;;;;6156277;23;19911;-74
2022/01/06 22:01:01;;;;;;;;;;;;;;;;;;6156874;23;20331;-74
2022/01/06 22:03:26;;;;;;;;;;;;;;;;;;6156195;23;19925;-73
2022/01/06 22:05:52;;;;;;;;;;;;;;;;;;6156378;23;19912;-73
2022/01/06 22:08:18;;;;;;;;;;;;;;;;;;6155801;23;19912;-74
2022/01/06 22:10:44;;;;;;;;;;;;;;;;;;6156480;23;19905;-74
2022/01/06 22:13:10;;;;;;;;;;;;;;;;;;6156447;23;19932;-74
2022/01/06 22:15:36;;;;;;;;;;;;;;;;;;6130049;23;20367;-74
2022/01/06 22:18:02;;;;;;;;;;;;;;;;;;6156401;23;19991;-74
2022/01/06 22:20:28;;;;;;;;;;;;;;;;;;6156870;23;20293;-74
2022/01/06 22:22:54;;;;;;;;;;;;;;;;;;6155787;23;19929;-74
2022/01/06 22:25:20;;;;;;;;;;;;;;;;;;6156131;23;20338;-73
2022/01/06 22:27:48;;;;;;;;;;;;;;;;;;6156460;23;20373;-73
2022/01/06 22:30:14;;;;;;;;;;;;;;;;;;6156081;23;19908;-74
2022/01/06 22:32:40;;;;;;;;;;;;;;;;;;6156384;23;19935;-74
2022/01/06 22:35:06;;;;;;;;;;;;;;;;;;6156339;23;19905;-74
2022/01/06 22:37:32;;;;;;;;;;;;;;;;;;6155376;23;19908;-74
2022/01/06 22:39:58;;;;;;;;;;;;;;;;;;6155571;23;19912;-76
2022/01/06 22:42:24;;;;;;;;;;;;;;;;;;6155939;23;20307;-74
2022/01/06 22:44:50;;;;;;;;;;;;;;;;;;6155837;23;19909;-74
2022/01/06 22:47:16;;;;;;;;;;;;;;;;;;6130109;23;19911;-73
2022/01/06 22:49:42;;;;;;;;;;;;;;;;;;6155951;23;19912;-74
2022/01/06 22:52:08;;;;;;;;;;;;;;;;;;6156307;23;20333;-74
2022/01/06 22:54:34;;;;;;;;;;;;;;;;;;6128758;23;20286;-73
2022/01/06 22:57:01;;;;;;;;;;;;;;;;;;6156252;23;19923;-79
2022/01/06 22:59:32;;;;;;;;;;;;;;;;;;6155607;23;20334;-73
2022/01/06 23:01:58;;;;;;;;;;;;;;;;;;6155927;23;19911;-73
2022/01/06 23:04:24;;;;;;;;;;;;;;;;;;6156190;23;19928;-74
2022/01/06 23:06:49;;;;;;;;;;;;;;;;;;6155463;23;20394;-73
2022/01/06 23:09:15;;;;;;;;;;;;;;;;;;6155535;23;19908;-73
2022/01/06 23:11:41;;;;;;;;;;;;;;;;;;6155982;23;19971;-73
2022/01/06 23:14:10;;;;;;;;;;;;;;;;;;6155740;23;19905;-73
2022/01/06 23:16:36;;;;;;;;;;;;;;;;;;6156057;23;19905;-74
2022/01/06 23:19:02;;;;;;;;;;;;;;;;;;6156036;23;20247;-74
2022/01/06 23:21:28;;;;;;;;;;;;;;;;;;6155423;23;19905;-74
2022/01/06 23:23:54;;;;;;;;;;;;;;;;;;6155750;23;19905;-73
2022/01/06 23:26:20;;;;;;;;;;;;;;;;;;6155821;23;20330;-73
2022/01/06 23:28:46;;;;;;;;;;;;;;;;;;6155877;23;19914;-74
2022/01/06 23:31:12;;;;;;;;;;;;;;;;;;6155965;23;19904;-74
2022/01/06 23:33:38;;;;;;;;;;;;;;;;;;6155326;23;19917;-73
2022/01/06 23:36:04;;;;;;;;;;;;;;;;;;6155315;23;19991;-74
2022/01/06 23:38:30;;;;;;;;;;;;;;;;;;6155125;23;19974;-73
2022/01/06 23:40:57;;;;;;;;;;;;;;;;;;6129415;23;19951;-73
2022/01/06 23:43:23;;;;;;;;;;;;;;;;;;6155794;23;19905;-74
2022/01/06 23:45:49;;;;;;;;;;;;;;;;;;6155490;23;19911;-73
2022/01/06 23:48:15;;;;;;;;;;;;;;;;;;6155327;23;19905;-73
2022/01/06 23:50:41;;;;;;;;;;;;;;;;;;6154429;23;19905;-74
2022/01/06 23:53:06;;;;;;;;;;;;;;;;;;6155048;23;19905;-73
2022/01/06 23:55:32;;;;;;;;;;;;;;;;;;6155408;23;19905;-74
2022/01/06 23:58:01;;;;;;;;;;;;;;;;;;6155579;23;19905;-73
